sensor_id;sensor_type;location;lat;lon;timestamp;P1;durP1;ratioP1;P2;durP2;ratioP2
14350;SDS011;59223;54.276;10.194;2022-07-06T00:02:11;2.80;;;1.70;;
14350;SDS011;59223;54.276;10.194;2022-07-06T00:04:40;2.97;;;1.73;;
14350;SDS011;59223;54.276;10.194;2022-07-06T00:07:07;3.50;;;1.67;;
14350;SDS011;59223;54.276;10.194;2022-07-06T00:09:34;2.13;;;1.30;;
14350;SDS011;59223;54.276;10.194;2022-07-06T00:12:03;1.97;;;1.30;;
14350;SDS011;59223;54.276;10.194;2022-07-06T00:14:32;2.33;;;1.40;;
14350;SDS011;59223;54.276;10.194;2022-07-06T00:16:59;3.90;;;1.60;;
14350;SDS011;59223;54.276;10.194;2022-07-06T00:19:26;1.50;;;1.40;;
14350;SDS011;59223;54.276;10.194;2022-07-06T00:21:58;2.57;;;1.40;;
14350;SDS011;59223;54.276;10.194;2022-07-06T00:24:25;1.43;;;1.33;;
14350;SDS011;59223;54.276;10.194;2022-07-06T00:26:51;1.20;;;1.20;;
14350;SDS011;59223;54.276;10.194;2022-07-06T00:29:18;2.90;;;1.50;;
14350;SDS011;59223;54.276;10.194;2022-07-06T00:31:47;3.23;;;1.80;;
14350;SDS011;59223;54.276;10.194;2022-07-06T00:34:14;3.03;;;1.40;;
14350;SDS011;59223;54.276;10.194;2022-07-06T00:36:41;2.67;;;1.70;;
14350;SDS011;59223;54.276;10.194;2022-07-06T00:39:08;1.30;;;1.20;;
14350;SDS011;59223;54.276;10.194;2022-07-06T00:41:38;2.10;;;1.70;;
14350;SDS011;59223;54.276;10.194;2022-07-06T00:44:06;3.67;;;1.33;;
14350;SDS011;59223;54.276;10.194;2022-07-06T00:46:36;3.03;;;1.27;;
14350;SDS011;59223;54.276;10.194;2022-07-06T00:49:05;3.63;;;1.50;;
14350;SDS011;59223;54.276;10.194;2022-07-06T00:51:52;3.37;;;1.37;;
14350;SDS011;59223;54.276;10.194;2022-07-06T00:54:19;2.57;;;1.63;;
14350;SDS011;59223;54.276;10.194;2022-07-06T00:56:46;2.17;;;1.30;;
14350;SDS011;59223;54.276;10.194;2022-07-06T00:59:13;2.03;;;1.50;;
14350;SDS011;59223;54.276;10.194;2022-07-06T01:01:40;1.63;;;1.40;;
14350;SDS011;59223;54.276;10.194;2022-07-06T01:04:07;3.60;;;1.33;;
14350;SDS011;59223;54.276;10.194;2022-07-06T01:06:34;2.93;;;1.33;;
14350;SDS011;59223;54.276;10.194;2022-07-06T01:09:01;2.07;;;1.13;;
14350;SDS011;59223;54.276;10.194;2022-07-06T01:11:30;4.33;;;1.43;;
14350;SDS011;59223;54.276;10.194;2022-07-06T01:13:57;2.73;;;1.63;;
14350;SDS011;59223;54.276;10.194;2022-07-06T01:16:26;3.93;;;1.67;;
14350;SDS011;59223;54.276;10.194;2022-07-06T01:18:54;1.60;;;1.33;;
14350;SDS011;59223;54.276;10.194;2022-07-06T01:21:20;2.33;;;1.33;;
14350;SDS011;59223;54.276;10.194;2022-07-06T01:23:48;1.40;;;1.30;;
14350;SDS011;59223;54.276;10.194;2022-07-06T01:26:20;3.53;;;1.50;;
14350;SDS011;59223;54.276;10.194;2022-07-06T01:28:49;2.03;;;1.30;;
14350;SDS011;59223;54.276;10.194;2022-07-06T01:31:21;1.40;;;1.30;;
14350;SDS011;59223;54.276;10.194;2022-07-06T01:33:54;2.37;;;1.33;;
14350;SDS011;59223;54.276;10.194;2022-07-06T01:36:22;1.47;;;1.20;;
14350;SDS011;59223;54.276;10.194;2022-07-06T01:38:56;1.17;;;1.07;;
14350;SDS011;59223;54.276;10.194;2022-07-06T01:41:24;1.43;;;1.20;;
14350;SDS011;59223;54.276;10.194;2022-07-06T01:43:51;3.57;;;1.70;;
14350;SDS011;59223;54.276;10.194;2022-07-06T01:46:18;2.33;;;1.57;;
14350;SDS011;59223;54.276;10.194;2022-07-06T01:48:48;1.93;;;1.37;;
14350;SDS011;59223;54.276;10.194;2022-07-06T01:51:17;1.93;;;1.03;;
14350;SDS011;59223;54.276;10.194;2022-07-06T01:53:44;3.03;;;1.30;;
14350;SDS011;59223;54.276;10.194;2022-07-06T01:56:11;1.70;;;1.17;;
14350;SDS011;59223;54.276;10.194;2022-07-06T01:58:41;1.13;;;1.03;;
14350;SDS011;59223;54.276;10.194;2022-07-06T02:01:11;4.30;;;1.77;;
14350;SDS011;59223;54.276;10.194;2022-07-06T02:03:44;2.70;;;1.23;;
14350;SDS011;59223;54.276;10.194;2022-07-06T02:06:14;1.20;;;1.10;;
14350;SDS011;59223;54.276;10.194;2022-07-06T02:08:41;1.50;;;1.23;;
14350;SDS011;59223;54.276;10.194;2022-07-06T02:11:10;1.40;;;1.30;;
14350;SDS011;59223;54.276;10.194;2022-07-06T02:13:37;1.73;;;1.30;;
14350;SDS011;59223;54.276;10.194;2022-07-06T02:16:07;2.53;;;1.30;;
14350;SDS011;59223;54.276;10.194;2022-07-06T02:18:36;1.40;;;1.30;;
14350;SDS011;59223;54.276;10.194;2022-07-06T02:21:06;2.63;;;1.53;;
14350;SDS011;59223;54.276;10.194;2022-07-06T02:23:32;1.30;;;1.20;;
14350;SDS011;59223;54.276;10.194;2022-07-06T02:26:02;2.80;;;1.20;;
14350;SDS011;59223;54.276;10.194;2022-07-06T02:28:30;0.97;;;0.97;;
14350;SDS011;59223;54.276;10.194;2022-07-06T02:31:01;1.50;;;1.20;;
14350;SDS011;59223;54.276;10.194;2022-07-06T02:33:28;1.50;;;1.17;;
14350;SDS011;59223;54.276;10.194;2022-07-06T02:35:58;1.07;;;1.00;;
14350;SDS011;59223;54.276;10.194;2022-07-06T02:38:24;2.03;;;1.57;;
14350;SDS011;59223;54.276;10.194;2022-07-06T02:40:52;4.43;;;1.40;;
14350;SDS011;59223;54.276;10.194;2022-07-06T02:43:19;1.50;;;1.33;;
14350;SDS011;59223;54.276;10.194;2022-07-06T02:45:46;2.67;;;1.30;;
14350;SDS011;59223;54.276;10.194;2022-07-06T02:48:15;1.20;;;1.10;;
14350;SDS011;59223;54.276;10.194;2022-07-06T02:50:42;1.27;;;1.10;;
14350;SDS011;59223;54.276;10.194;2022-07-06T02:53:09;1.67;;;1.40;;
14350;SDS011;59223;54.276;10.194;2022-07-06T02:55:36;1.30;;;1.20;;
14350;SDS011;59223;54.276;10.194;2022-07-06T02:58:05;1.13;;;0.93;;
14350;SDS011;59223;54.276;10.194;2022-07-06T03:00:32;1.30;;;1.20;;
14350;SDS011;59223;54.276;10.194;2022-07-06T03:03:01;1.97;;;1.30;;
14350;SDS011;59223;54.276;10.194;2022-07-06T03:05:28;1.33;;;1.23;;
14350;SDS011;59223;54.276;10.194;2022-07-06T03:07:59;2.93;;;1.13;;
14350;SDS011;59223;54.276;10.194;2022-07-06T03:10:26;2.67;;;1.10;;
14350;SDS011;59223;54.276;10.194;2022-07-06T03:12:53;3.13;;;1.37;;
14350;SDS011;59223;54.276;10.194;2022-07-06T03:15:20;2.53;;;1.30;;
14350;SDS011;59223;54.276;10.194;2022-07-06T03:17:47;1.80;;;1.17;;
14350;SDS011;59223;54.276;10.194;2022-07-06T03:20:14;1.13;;;0.93;;
14350;SDS011;59223;54.276;10.194;2022-07-06T03:22:42;1.60;;;1.20;;
14350;SDS011;59223;54.276;10.194;2022-07-06T03:25:09;2.27;;;1.10;;
14350;SDS011;59223;54.276;10.194;2022-07-06T03:27:39;2.50;;;0.90;;
14350;SDS011;59223;54.276;10.194;2022-07-06T03:30:06;3.77;;;1.27;;
14350;SDS011;59223;54.276;10.194;2022-07-06T03:32:39;3.07;;;1.07;;
14350;SDS011;59223;54.276;10.194;2022-07-06T03:35:08;1.73;;;1.60;;
14350;SDS011;59223;54.276;10.194;2022-07-06T03:37:35;1.67;;;1.00;;
14350;SDS011;59223;54.276;10.194;2022-07-06T03:40:02;1.13;;;1.10;;
14350;SDS011;59223;54.276;10.194;2022-07-06T03:42:31;1.50;;;1.20;;
14350;SDS011;59223;54.276;10.194;2022-07-06T03:44:58;0.97;;;0.97;;
14350;SDS011;59223;54.276;10.194;2022-07-06T03:47:25;0.90;;;0.90;;
14350;SDS011;59223;54.276;10.194;2022-07-06T03:49:54;1.93;;;0.93;;
14350;SDS011;59223;54.276;10.194;2022-07-06T03:52:22;0.80;;;0.80;;
14350;SDS011;59223;54.276;10.194;2022-07-06T03:54:51;2.80;;;1.10;;
14350;SDS011;59223;54.276;10.194;2022-07-06T03:57:20;1.43;;;1.20;;
14350;SDS011;59223;54.276;10.194;2022-07-06T03:59:47;1.63;;;1.10;;
14350;SDS011;59223;54.276;10.194;2022-07-06T04:02:14;1.10;;;1.00;;
14350;SDS011;59223;54.276;10.194;2022-07-06T04:04:41;2.17;;;1.70;;
14350;SDS011;59223;54.276;10.194;2022-07-06T04:07:08;2.13;;;1.30;;
14350;SDS011;59223;54.276;10.194;2022-07-06T04:09:36;1.57;;;1.17;;
14350;SDS011;59223;54.276;10.194;2022-07-06T04:12:02;1.37;;;1.10;;
14350;SDS011;59223;54.276;10.194;2022-07-06T04:14:30;2.10;;;1.27;;
14350;SDS011;59223;54.276;10.194;2022-07-06T04:17:01;1.90;;;1.40;;
14350;SDS011;59223;54.276;10.194;2022-07-06T04:19:50;3.80;;;1.20;;
14350;SDS011;59223;54.276;10.194;2022-07-06T04:22:17;2.07;;;1.03;;
14350;SDS011;59223;54.276;10.194;2022-07-06T04:24:44;3.13;;;1.30;;
14350;SDS011;59223;54.276;10.194;2022-07-06T04:27:13;1.00;;;1.00;;
14350;SDS011;59223;54.276;10.194;2022-07-06T04:29:42;2.20;;;1.40;;
14350;SDS011;59223;54.276;10.194;2022-07-06T04:32:09;2.53;;;1.20;;
14350;SDS011;59223;54.276;10.194;2022-07-06T04:34:36;1.73;;;1.20;;
14350;SDS011;59223;54.276;10.194;2022-07-06T04:37:03;1.60;;;0.90;;
14350;SDS011;59223;54.276;10.194;2022-07-06T04:39:30;0.90;;;0.90;;
14350;SDS011;59223;54.276;10.194;2022-07-06T04:42:01;2.60;;;1.10;;
14350;SDS011;59223;54.276;10.194;2022-07-06T04:44:28;1.43;;;1.30;;
14350;SDS011;59223;54.276;10.194;2022-07-06T04:46:57;1.90;;;1.50;;
14350;SDS011;59223;54.276;10.194;2022-07-06T04:49:24;2.13;;;1.50;;
14350;SDS011;59223;54.276;10.194;2022-07-06T04:51:51;1.43;;;1.33;;
14350;SDS011;59223;54.276;10.194;2022-07-06T04:54:18;1.70;;;1.13;;
14350;SDS011;59223;54.276;10.194;2022-07-06T04:56:47;1.50;;;1.40;;
14350;SDS011;59223;54.276;10.194;2022-07-06T04:59:14;2.90;;;1.43;;
14350;SDS011;59223;54.276;10.194;2022-07-06T05:01:45;3.10;;;1.53;;
14350;SDS011;59223;54.276;10.194;2022-07-06T05:04:12;1.30;;;1.20;;
14350;SDS011;59223;54.276;10.194;2022-07-06T05:06:39;3.20;;;1.87;;
14350;SDS011;59223;54.276;10.194;2022-07-06T05:09:08;2.90;;;1.37;;
14350;SDS011;59223;54.276;10.194;2022-07-06T05:11:35;3.90;;;1.47;;
14350;SDS011;59223;54.276;10.194;2022-07-06T05:14:03;1.90;;;1.17;;
14350;SDS011;59223;54.276;10.194;2022-07-06T05:16:31;1.87;;;1.43;;
14350;SDS011;59223;54.276;10.194;2022-07-06T05:18:58;1.83;;;1.03;;
14350;SDS011;59223;54.276;10.194;2022-07-06T05:21:25;1.83;;;1.13;;
14350;SDS011;59223;54.276;10.194;2022-07-06T05:23:52;1.40;;;1.07;;
14350;SDS011;59223;54.276;10.194;2022-07-06T05:26:21;1.27;;;0.87;;
14350;SDS011;59223;54.276;10.194;2022-07-06T05:28:48;2.63;;;0.73;;
14350;SDS011;59223;54.276;10.194;2022-07-06T05:31:14;0.90;;;0.90;;
14350;SDS011;59223;54.276;10.194;2022-07-06T05:33:41;1.00;;;1.00;;
14350;SDS011;59223;54.276;10.194;2022-07-06T05:36:08;1.00;;;1.00;;
14350;SDS011;59223;54.276;10.194;2022-07-06T05:38:35;2.03;;;0.90;;
14350;SDS011;59223;54.276;10.194;2022-07-06T05:41:02;1.20;;;1.00;;
14350;SDS011;59223;54.276;10.194;2022-07-06T05:43:29;0.93;;;0.73;;
14350;SDS011;59223;54.276;10.194;2022-07-06T05:45:56;1.10;;;1.00;;
14350;SDS011;59223;54.276;10.194;2022-07-06T05:48:25;1.30;;;1.20;;
14350;SDS011;59223;54.276;10.194;2022-07-06T05:51:10;3.60;;;0.70;;
14350;SDS011;59223;54.276;10.194;2022-07-06T05:53:37;0.97;;;0.93;;
14350;SDS011;59223;54.276;10.194;2022-07-06T05:56:06;1.23;;;0.93;;
14350;SDS011;59223;54.276;10.194;2022-07-06T05:58:33;2.87;;;0.73;;
14350;SDS011;59223;54.276;10.194;2022-07-06T06:01:00;1.20;;;0.93;;
14350;SDS011;59223;54.276;10.194;2022-07-06T06:03:29;1.97;;;0.90;;
14350;SDS011;59223;54.276;10.194;2022-07-06T06:05:56;1.88;;;0.73;;
14350;SDS011;59223;54.276;10.194;2022-07-06T06:08:23;2.25;;;0.77;;
14350;SDS011;59223;54.276;10.194;2022-07-06T06:10:54;2.78;;;0.90;;
14350;SDS011;59223;54.276;10.194;2022-07-06T06:13:20;0.75;;;0.65;;
14350;SDS011;59223;54.276;10.194;2022-07-06T06:15:47;3.97;;;0.90;;
14350;SDS011;59223;54.276;10.194;2022-07-06T06:18:14;0.80;;;0.70;;
14350;SDS011;59223;54.276;10.194;2022-07-06T06:20:45;0.60;;;0.60;;
14350;SDS011;59223;54.276;10.194;2022-07-06T06:23:13;1.02;;;0.93;;
14350;SDS011;59223;54.276;10.194;2022-07-06T06:25:42;1.40;;;0.75;;
14350;SDS011;59223;54.276;10.194;2022-07-06T06:28:11;1.00;;;0.95;;
14350;SDS011;59223;54.276;10.194;2022-07-06T06:30:40;0.98;;;0.82;;
14350;SDS011;59223;54.276;10.194;2022-07-06T06:33:09;3.10;;;1.10;;
14350;SDS011;59223;54.276;10.194;2022-07-06T06:38:12;0.80;;;0.70;;
14350;SDS011;59223;54.276;10.194;2022-07-06T06:40:40;0.57;;;0.57;;
14350;SDS011;59223;54.276;10.194;2022-07-06T06:43:07;1.60;;;0.82;;
14350;SDS011;59223;54.276;10.194;2022-07-06T06:45:36;0.80;;;0.70;;
14350;SDS011;59223;54.276;10.194;2022-07-06T06:48:06;2.23;;;0.90;;
14350;SDS011;59223;54.276;10.194;2022-07-06T06:50:42;1.00;;;0.95;;
14350;SDS011;59223;54.276;10.194;2022-07-06T06:53:11;1.40;;;0.88;;
14350;SDS011;59223;54.276;10.194;2022-07-06T06:55:38;1.83;;;0.80;;
14350;SDS011;59223;54.276;10.194;2022-07-06T06:58:07;0.80;;;0.80;;
14350;SDS011;59223;54.276;10.194;2022-07-06T07:00:34;1.00;;;0.90;;
14350;SDS011;59223;54.276;10.194;2022-07-06T07:03:01;2.13;;;0.63;;
14350;SDS011;59223;54.276;10.194;2022-07-06T07:05:30;1.07;;;0.80;;
14350;SDS011;59223;54.276;10.194;2022-07-06T07:07:57;1.33;;;0.67;;
14350;SDS011;59223;54.276;10.194;2022-07-06T07:10:30;2.78;;;0.90;;
14350;SDS011;59223;54.276;10.194;2022-07-06T07:12:57;1.02;;;0.95;;
14350;SDS011;59223;54.276;10.194;2022-07-06T07:15:26;2.70;;;1.20;;
14350;SDS011;59223;54.276;10.194;2022-07-06T07:17:53;0.83;;;0.77;;
14350;SDS011;59223;54.276;10.194;2022-07-06T07:20:22;0.60;;;0.43;;
14350;SDS011;59223;54.276;10.194;2022-07-06T07:22:51;1.10;;;0.83;;
14350;SDS011;59223;54.276;10.194;2022-07-06T07:25:20;1.80;;;0.80;;
14350;SDS011;59223;54.276;10.194;2022-07-06T07:27:48;0.67;;;0.67;;
14350;SDS011;59223;54.276;10.194;2022-07-06T07:30:14;1.60;;;0.70;;
14350;SDS011;59223;54.276;10.194;2022-07-06T07:32:41;5.78;;;1.00;;
14350;SDS011;59223;54.276;10.194;2022-07-06T07:35:08;2.13;;;1.05;;
14350;SDS011;59223;54.276;10.194;2022-07-06T07:37:35;1.17;;;0.82;;
14350;SDS011;59223;54.276;10.194;2022-07-06T07:40:03;0.73;;;0.73;;
14350;SDS011;59223;54.276;10.194;2022-07-06T07:42:32;1.05;;;0.70;;
14350;SDS011;59223;54.276;10.194;2022-07-06T07:44:59;1.20;;;1.05;;
14350;SDS011;59223;54.276;10.194;2022-07-06T07:47:26;3.47;;;0.85;;
14350;SDS011;59223;54.276;10.194;2022-07-06T07:49:53;1.33;;;0.77;;
14350;SDS011;59223;54.276;10.194;2022-07-06T07:52:22;0.60;;;0.60;;
14350;SDS011;59223;54.276;10.194;2022-07-06T07:54:49;0.85;;;0.85;;
14350;SDS011;59223;54.276;10.194;2022-07-06T07:57:35;0.85;;;0.50;;
14350;SDS011;59223;54.276;10.194;2022-07-06T08:00:03;1.17;;;0.80;;
14350;SDS011;59223;54.276;10.194;2022-07-06T08:02:31;3.70;;;1.42;;
14350;SDS011;59223;54.276;10.194;2022-07-06T08:05:03;1.35;;;0.75;;
14350;SDS011;59223;54.276;10.194;2022-07-06T08:07:30;1.40;;;1.08;;
14350;SDS011;59223;54.276;10.194;2022-07-06T08:09:58;2.58;;;0.85;;
14350;SDS011;59223;54.276;10.194;2022-07-06T08:12:26;0.77;;;0.70;;
14350;SDS011;59223;54.276;10.194;2022-07-06T08:14:53;3.03;;;1.17;;
14350;SDS011;59223;54.276;10.194;2022-07-06T08:17:20;1.23;;;1.05;;
14350;SDS011;59223;54.276;10.194;2022-07-06T08:19:47;0.57;;;0.57;;
14350;SDS011;59223;54.276;10.194;2022-07-06T08:22:16;1.02;;;0.75;;
14350;SDS011;59223;54.276;10.194;2022-07-06T08:24:44;0.65;;;0.65;;
14350;SDS011;59223;54.276;10.194;2022-07-06T08:27:13;1.52;;;1.00;;
14350;SDS011;59223;54.276;10.194;2022-07-06T08:29:40;0.88;;;0.73;;
14350;SDS011;59223;54.276;10.194;2022-07-06T08:32:07;2.33;;;0.98;;
14350;SDS011;59223;54.276;10.194;2022-07-06T08:34:46;2.00;;;0.77;;
14350;SDS011;59223;54.276;10.194;2022-07-06T08:37:13;1.48;;;1.08;;
14350;SDS011;59223;54.276;10.194;2022-07-06T08:39:43;0.77;;;0.77;;
14350;SDS011;59223;54.276;10.194;2022-07-06T08:42:14;0.95;;;0.90;;
14350;SDS011;59223;54.276;10.194;2022-07-06T08:44:43;1.85;;;1.00;;
14350;SDS011;59223;54.276;10.194;2022-07-06T08:47:10;1.00;;;0.90;;
14350;SDS011;59223;54.276;10.194;2022-07-06T08:49:38;0.63;;;0.63;;
14350;SDS011;59223;54.276;10.194;2022-07-06T08:52:05;0.60;;;0.60;;
14350;SDS011;59223;54.276;10.194;2022-07-06T08:54:34;2.27;;;1.00;;
14350;SDS011;59223;54.276;10.194;2022-07-06T08:57:02;1.10;;;1.00;;
14350;SDS011;59223;54.276;10.194;2022-07-06T08:59:30;3.07;;;0.97;;
14350;SDS011;59223;54.276;10.194;2022-07-06T09:01:58;1.17;;;1.07;;
14350;SDS011;59223;54.276;10.194;2022-07-06T09:04:26;1.20;;;1.00;;
14350;SDS011;59223;54.276;10.194;2022-07-06T09:06:57;2.30;;;1.03;;
14350;SDS011;59223;54.276;10.194;2022-07-06T09:09:26;1.63;;;0.97;;
14350;SDS011;59223;54.276;10.194;2022-07-06T09:11:59;0.80;;;0.77;;
14350;SDS011;59223;54.276;10.194;2022-07-06T09:14:29;1.13;;;0.82;;
14350;SDS011;59223;54.276;10.194;2022-07-06T09:17:03;0.95;;;0.77;;
14350;SDS011;59223;54.276;10.194;2022-07-06T09:19:38;0.68;;;0.68;;
14350;SDS011;59223;54.276;10.194;2022-07-06T09:22:05;0.68;;;0.68;;
14350;SDS011;59223;54.276;10.194;2022-07-06T09:24:31;1.10;;;0.83;;
14350;SDS011;59223;54.276;10.194;2022-07-06T09:26:59;1.55;;;0.75;;
14350;SDS011;59223;54.276;10.194;2022-07-06T09:29:27;3.33;;;0.90;;
14350;SDS011;59223;54.276;10.194;2022-07-06T09:31:56;1.63;;;0.90;;
14350;SDS011;59223;54.276;10.194;2022-07-06T09:34:40;0.70;;;0.45;;
14350;SDS011;59223;54.276;10.194;2022-07-06T09:37:09;1.38;;;0.82;;
14350;SDS011;59223;54.276;10.194;2022-07-06T09:39:36;1.38;;;0.90;;
14350;SDS011;59223;54.276;10.194;2022-07-06T09:42:04;0.63;;;0.63;;
14350;SDS011;59223;54.276;10.194;2022-07-06T09:44:34;0.70;;;0.70;;
14350;SDS011;59223;54.276;10.194;2022-07-06T09:47:04;2.50;;;0.75;;
14350;SDS011;59223;54.276;10.194;2022-07-06T09:49:36;1.30;;;0.60;;
14350;SDS011;59223;54.276;10.194;2022-07-06T09:52:11;2.05;;;0.93;;
14350;SDS011;59223;54.276;10.194;2022-07-06T09:54:39;2.67;;;0.90;;
14350;SDS011;59223;54.276;10.194;2022-07-06T09:57:06;0.95;;;0.65;;
14350;SDS011;59223;54.276;10.194;2022-07-06T09:59:35;2.22;;;0.68;;
14350;SDS011;59223;54.276;10.194;2022-07-06T10:02:05;0.95;;;0.82;;
14350;SDS011;59223;54.276;10.194;2022-07-06T10:04:35;2.40;;;0.90;;
14350;SDS011;59223;54.276;10.194;2022-07-06T10:07:02;2.15;;;0.85;;
14350;SDS011;59223;54.276;10.194;2022-07-06T10:09:30;0.60;;;0.60;;
14350;SDS011;59223;54.276;10.194;2022-07-06T10:11:58;1.25;;;0.65;;
14350;SDS011;59223;54.276;10.194;2022-07-06T10:14:32;0.90;;;0.90;;
14350;SDS011;59223;54.276;10.194;2022-07-06T10:17:00;1.70;;;0.63;;
14350;SDS011;59223;54.276;10.194;2022-07-06T10:19:29;0.80;;;0.65;;
14350;SDS011;59223;54.276;10.194;2022-07-06T10:22:00;1.17;;;0.82;;
14350;SDS011;59223;54.276;10.194;2022-07-06T10:24:28;2.05;;;0.85;;
14350;SDS011;59223;54.276;10.194;2022-07-06T10:27:00;2.03;;;0.77;;
14350;SDS011;59223;54.276;10.194;2022-07-06T10:29:28;1.38;;;0.82;;
14350;SDS011;59223;54.276;10.194;2022-07-06T10:31:59;1.67;;;0.82;;
14350;SDS011;59223;54.276;10.194;2022-07-06T10:34:27;1.80;;;0.90;;
14350;SDS011;59223;54.276;10.194;2022-07-06T10:36:56;0.95;;;0.57;;
14350;SDS011;59223;54.276;10.194;2022-07-06T10:39:33;1.75;;;0.63;;
14350;SDS011;59223;54.276;10.194;2022-07-06T10:42:39;0.98;;;0.80;;
14350;SDS011;59223;54.276;10.194;2022-07-06T10:45:11;2.70;;;1.25;;
14350;SDS011;59223;54.276;10.194;2022-07-06T10:47:40;1.52;;;0.85;;
14350;SDS011;59223;54.276;10.194;2022-07-06T10:50:08;1.02;;;0.90;;
14350;SDS011;59223;54.276;10.194;2022-07-06T10:55:27;1.70;;;0.95;;
14350;SDS011;59223;54.276;10.194;2022-07-06T10:58:06;2.38;;;0.80;;
14350;SDS011;59223;54.276;10.194;2022-07-06T11:03:36;1.30;;;0.73;;
14350;SDS011;59223;54.276;10.194;2022-07-06T11:06:06;1.33;;;0.73;;
14350;SDS011;59223;54.276;10.194;2022-07-06T11:11:27;1.77;;;0.73;;
14350;SDS011;59223;54.276;10.194;2022-07-06T11:14:14;0.65;;;0.63;;
14350;SDS011;59223;54.276;10.194;2022-07-06T11:19:17;1.65;;;0.70;;
14350;SDS011;59223;54.276;10.194;2022-07-06T11:26:47;0.82;;;0.75;;
14350;SDS011;59223;54.276;10.194;2022-07-06T11:29:16;0.88;;;0.47;;
14350;SDS011;59223;54.276;10.194;2022-07-06T11:31:45;0.88;;;0.70;;
14350;SDS011;59223;54.276;10.194;2022-07-06T11:34:17;0.65;;;0.60;;
14350;SDS011;59223;54.276;10.194;2022-07-06T11:36:58;0.93;;;0.88;;
14350;SDS011;59223;54.276;10.194;2022-07-06T11:39:31;1.25;;;0.90;;
14350;SDS011;59223;54.276;10.194;2022-07-06T11:41:59;1.55;;;0.90;;
14350;SDS011;59223;54.276;10.194;2022-07-06T11:44:28;0.70;;;0.70;;
14350;SDS011;59223;54.276;10.194;2022-07-06T11:46:55;0.88;;;0.60;;
14350;SDS011;59223;54.276;10.194;2022-07-06T11:49:24;2.65;;;0.70;;
14350;SDS011;59223;54.276;10.194;2022-07-06T11:51:51;1.67;;;0.80;;
14350;SDS011;59223;54.276;10.194;2022-07-06T11:54:19;1.10;;;0.70;;
14350;SDS011;59223;54.276;10.194;2022-07-06T11:56:55;0.70;;;0.60;;
14350;SDS011;59223;54.276;10.194;2022-07-06T12:02:03;2.15;;;1.02;;
14350;SDS011;59223;54.276;10.194;2022-07-06T12:04:37;0.50;;;0.50;;
14350;SDS011;59223;54.276;10.194;2022-07-06T12:07:12;0.52;;;0.52;;
14350;SDS011;59223;54.276;10.194;2022-07-06T12:09:43;2.70;;;0.82;;
14350;SDS011;59223;54.276;10.194;2022-07-06T12:12:13;0.77;;;0.70;;
14350;SDS011;59223;54.276;10.194;2022-07-06T12:14:44;1.90;;;1.02;;
14350;SDS011;59223;54.276;10.194;2022-07-06T12:17:14;0.77;;;0.60;;
14350;SDS011;59223;54.276;10.194;2022-07-06T12:19:44;2.17;;;0.70;;
14350;SDS011;59223;54.276;10.194;2022-07-06T12:22:24;0.88;;;0.68;;
14350;SDS011;59223;54.276;10.194;2022-07-06T12:24:51;0.90;;;0.70;;
14350;SDS011;59223;54.276;10.194;2022-07-06T12:27:18;2.05;;;0.52;;
14350;SDS011;59223;54.276;10.194;2022-07-06T12:29:47;0.45;;;0.45;;
14350;SDS011;59223;54.276;10.194;2022-07-06T12:32:15;2.28;;;0.80;;
14350;SDS011;59223;54.276;10.194;2022-07-06T12:34:44;2.05;;;0.50;;
14350;SDS011;59223;54.276;10.194;2022-07-06T12:37:11;1.88;;;0.80;;
14350;SDS011;59223;54.276;10.194;2022-07-06T12:42:09;1.15;;;0.60;;
14350;SDS011;59223;54.276;10.194;2022-07-06T12:44:45;0.90;;;0.68;;
14350;SDS011;59223;54.276;10.194;2022-07-06T12:47:12;0.50;;;0.50;;
14350;SDS011;59223;54.276;10.194;2022-07-06T12:49:45;1.88;;;0.68;;
14350;SDS011;59223;54.276;10.194;2022-07-06T12:52:13;1.67;;;0.98;;
14350;SDS011;59223;54.276;10.194;2022-07-06T12:54:42;1.27;;;0.82;;
14350;SDS011;59223;54.276;10.194;2022-07-06T12:57:20;0.50;;;0.50;;
14350;SDS011;59223;54.276;10.194;2022-07-06T13:02:22;1.02;;;0.60;;
14350;SDS011;59223;54.276;10.194;2022-07-06T13:05:17;2.50;;;0.70;;
14350;SDS011;59223;54.276;10.194;2022-07-06T13:07:46;0.40;;;0.40;;
14350;SDS011;59223;54.276;10.194;2022-07-06T13:10:15;0.50;;;0.50;;
14350;SDS011;59223;54.276;10.194;2022-07-06T13:12:42;0.40;;;0.40;;
14350;SDS011;59223;54.276;10.194;2022-07-06T13:15:10;1.35;;;0.52;;
14350;SDS011;59223;54.276;10.194;2022-07-06T13:17:38;1.38;;;0.60;;
14350;SDS011;59223;54.276;10.194;2022-07-06T13:20:09;1.05;;;0.60;;
14350;SDS011;59223;54.276;10.194;2022-07-06T13:22:37;0.85;;;0.68;;
14350;SDS011;59223;54.276;10.194;2022-07-06T13:25:08;3.30;;;0.85;;
14350;SDS011;59223;54.276;10.194;2022-07-06T13:27:35;0.90;;;0.80;;
14350;SDS011;59223;54.276;10.194;2022-07-06T13:30:02;0.68;;;0.60;;
14350;SDS011;59223;54.276;10.194;2022-07-06T13:32:30;0.52;;;0.40;;
14350;SDS011;59223;54.276;10.194;2022-07-06T13:34:57;0.73;;;0.45;;
14350;SDS011;59223;54.276;10.194;2022-07-06T13:37:24;0.40;;;0.40;;
14350;SDS011;59223;54.276;10.194;2022-07-06T13:39:51;0.82;;;0.75;;
14350;SDS011;59223;54.276;10.194;2022-07-06T13:42:18;3.15;;;0.65;;
14350;SDS011;59223;54.276;10.194;2022-07-06T13:44:45;0.80;;;0.70;;
14350;SDS011;59223;54.276;10.194;2022-07-06T13:47:12;0.38;;;0.38;;
14350;SDS011;59223;54.276;10.194;2022-07-06T13:49:39;0.63;;;0.63;;
14350;SDS011;59223;54.276;10.194;2022-07-06T13:52:06;0.50;;;0.50;;
14350;SDS011;59223;54.276;10.194;2022-07-06T13:54:36;0.28;;;0.28;;
14350;SDS011;59223;54.276;10.194;2022-07-06T13:57:03;0.88;;;0.63;;
14350;SDS011;59223;54.276;10.194;2022-07-06T13:59:31;1.95;;;0.77;;
14350;SDS011;59223;54.276;10.194;2022-07-06T14:01:58;1.63;;;0.50;;
14350;SDS011;59223;54.276;10.194;2022-07-06T14:04:26;2.85;;;1.02;;
14350;SDS011;59223;54.276;10.194;2022-07-06T14:06:53;0.80;;;0.55;;
14350;SDS011;59223;54.276;10.194;2022-07-06T14:09:23;0.95;;;0.75;;
14350;SDS011;59223;54.276;10.194;2022-07-06T14:11:51;0.73;;;0.57;;
14350;SDS011;59223;54.276;10.194;2022-07-06T14:14:18;0.88;;;0.60;;
14350;SDS011;59223;54.276;10.194;2022-07-06T14:16:45;1.10;;;0.60;;
14350;SDS011;59223;54.276;10.194;2022-07-06T14:19:12;1.38;;;0.40;;
14350;SDS011;59223;54.276;10.194;2022-07-06T14:21:46;1.02;;;0.57;;
14350;SDS011;59223;54.276;10.194;2022-07-06T14:24:13;0.60;;;0.60;;
14350;SDS011;59223;54.276;10.194;2022-07-06T14:26:40;2.63;;;0.60;;
14350;SDS011;59223;54.276;10.194;2022-07-06T14:29:07;0.65;;;0.50;;
14350;SDS011;59223;54.276;10.194;2022-07-06T14:31:37;0.75;;;0.75;;
14350;SDS011;59223;54.276;10.194;2022-07-06T14:34:03;1.88;;;0.60;;
14350;SDS011;59223;54.276;10.194;2022-07-06T14:36:31;0.88;;;0.70;;
14350;SDS011;59223;54.276;10.194;2022-07-06T14:39:00;2.50;;;0.60;;
14350;SDS011;59223;54.276;10.194;2022-07-06T14:41:27;1.77;;;0.93;;
14350;SDS011;59223;54.276;10.194;2022-07-06T14:43:56;1.38;;;0.60;;
14350;SDS011;59223;54.276;10.194;2022-07-06T14:46:23;2.60;;;0.93;;
14350;SDS011;59223;54.276;10.194;2022-07-06T14:48:52;0.70;;;0.70;;
14350;SDS011;59223;54.276;10.194;2022-07-06T14:51:19;1.35;;;0.57;;
14350;SDS011;59223;54.276;10.194;2022-07-06T14:53:48;2.35;;;0.70;;
14350;SDS011;59223;54.276;10.194;2022-07-06T14:56:15;2.38;;;1.00;;
14350;SDS011;59223;54.276;10.194;2022-07-06T14:58:42;1.65;;;0.70;;
14350;SDS011;59223;54.276;10.194;2022-07-06T15:01:29;0.73;;;0.70;;
14350;SDS011;59223;54.276;10.194;2022-07-06T15:03:59;4.60;;;0.93;;
14350;SDS011;59223;54.276;10.194;2022-07-06T15:06:26;1.77;;;0.77;;
14350;SDS011;59223;54.276;10.194;2022-07-06T15:09:13;0.80;;;0.60;;
14350;SDS011;59223;54.276;10.194;2022-07-06T15:11:40;1.00;;;0.77;;